sensor_id;sensor_type;location;lat;lon;timestamp;temperature;humidity
21425;DHT22;10873;51.132;16.848;2024-01-15T00:01:15;24.40;42.00
21425;DHT22;10873;51.132;16.848;2024-01-15T00:03:58;24.40;42.10
21425;DHT22;10873;51.132;16.848;2024-01-15T00:06:28;24.40;42.10
21425;DHT22;10873;51.132;16.848;2024-01-15T00:08:58;24.40;42.10
21425;DHT22;10873;51.132;16.848;2024-01-15T00:11:29;24.40;42.00
21425;DHT22;10873;51.132;16.848;2024-01-15T00:14:08;24.40;42.00
21425;DHT22;10873;51.132;16.848;2024-01-15T00:16:37;24.40;41.90
21425;DHT22;10873;51.132;16.848;2024-01-15T00:19:10;24.40;42.20
21425;DHT22;10873;51.132;16.848;2024-01-15T00:21:36;24.40;41.90
21425;DHT22;10873;51.132;16.848;2024-01-15T00:24:02;24.40;42.60
21425;DHT22;10873;51.132;16.848;2024-01-15T00:26:31;24.30;41.90
21425;DHT22;10873;51.132;16.848;2024-01-15T00:29:04;24.30;41.90
21425;DHT22;10873;51.132;16.848;2024-01-15T00:31:30;24.30;41.90
21425;DHT22;10873;51.132;16.848;2024-01-15T00:33:57;24.30;41.90
21425;DHT22;10873;51.132;16.848;2024-01-15T00:36:23;24.30;41.90
21425;DHT22;10873;51.132;16.848;2024-01-15T00:38:49;24.30;41.90
21425;DHT22;10873;51.132;16.848;2024-01-15T00:41:15;24.30;41.90
21425;DHT22;10873;51.132;16.848;2024-01-15T00:43:41;24.30;41.90
21425;DHT22;10873;51.132;16.848;2024-01-15T00:46:07;24.30;41.80
21425;DHT22;10873;51.132;16.848;2024-01-15T00:48:34;24.30;41.80
21425;DHT22;10873;51.132;16.848;2024-01-15T00:51:01;24.30;41.80
21425;DHT22;10873;51.132;16.848;2024-01-15T00:53:27;24.30;41.80
21425;DHT22;10873;51.132;16.848;2024-01-15T00:55:53;24.30;41.70
21425;DHT22;10873;51.132;16.848;2024-01-15T00:58:20;24.30;41.70
21425;DHT22;10873;51.132;16.848;2024-01-15T01:00:45;24.30;41.70
21425;DHT22;10873;51.132;16.848;2024-01-15T01:03:12;24.30;41.70
21425;DHT22;10873;51.132;16.848;2024-01-15T01:05:38;24.30;41.70
21425;DHT22;10873;51.132;16.848;2024-01-15T01:08:06;24.30;41.80
21425;DHT22;10873;51.132;16.848;2024-01-15T01:10:32;24.30;41.80
21425;DHT22;10873;51.132;16.848;2024-01-15T01:12:58;24.30;41.80
21425;DHT22;10873;51.132;16.848;2024-01-15T01:15:24;24.30;41.80
21425;DHT22;10873;51.132;16.848;2024-01-15T01:17:50;24.30;41.70
21425;DHT22;10873;51.132;16.848;2024-01-15T01:20:17;24.30;41.70
21425;DHT22;10873;51.132;16.848;2024-01-15T01:22:43;24.30;41.70
21425;DHT22;10873;51.132;16.848;2024-01-15T01:25:10;24.30;41.70
21425;DHT22;10873;51.132;16.848;2024-01-15T01:27:36;24.30;41.70
21425;DHT22;10873;51.132;16.848;2024-01-15T01:30:03;24.30;41.60
21425;DHT22;10873;51.132;16.848;2024-01-15T01:32:29;24.30;41.60
21425;DHT22;10873;51.132;16.848;2024-01-15T01:34:55;24.20;41.60
21425;DHT22;10873;51.132;16.848;2024-01-15T01:37:22;24.20;41.60
21425;DHT22;10873;51.132;16.848;2024-01-15T01:39:47;24.20;41.60
21425;DHT22;10873;51.132;16.848;2024-01-15T01:42:15;24.20;41.60
21425;DHT22;10873;51.132;16.848;2024-01-15T01:44:41;24.20;41.70
21425;DHT22;10873;51.132;16.848;2024-01-15T01:47:07;24.20;41.70
21425;DHT22;10873;51.132;16.848;2024-01-15T01:49:34;24.20;41.70
21425;DHT22;10873;51.132;16.848;2024-01-15T01:52:03;24.20;41.70
21425;DHT22;10873;51.132;16.848;2024-01-15T01:54:32;24.20;41.60
21425;DHT22;10873;51.132;16.848;2024-01-15T01:56:59;24.20;41.60
21425;DHT22;10873;51.132;16.848;2024-01-15T01:59:27;24.20;41.60
21425;DHT22;10873;51.132;16.848;2024-01-15T02:01:54;24.20;41.60
21425;DHT22;10873;51.132;16.848;2024-01-15T02:04:22;24.20;41.60
21425;DHT22;10873;51.132;16.848;2024-01-15T02:06:50;24.20;41.60
21425;DHT22;10873;51.132;16.848;2024-01-15T02:09:17;24.20;41.60
21425;DHT22;10873;51.132;16.848;2024-01-15T02:11:43;24.20;41.70
21425;DHT22;10873;51.132;16.848;2024-01-15T02:14:10;24.20;41.70
21425;DHT22;10873;51.132;16.848;2024-01-15T02:16:37;24.20;41.70
21425;DHT22;10873;51.132;16.848;2024-01-15T02:19:03;24.20;41.80
21425;DHT22;10873;51.132;16.848;2024-01-15T02:21:29;24.20;41.80
21425;DHT22;10873;51.132;16.848;2024-01-15T02:23:59;24.20;42.50
21425;DHT22;10873;51.132;16.848;2024-01-15T02:26:25;24.20;41.80
21425;DHT22;10873;51.132;16.848;2024-01-15T02:28:52;24.20;41.80
21425;DHT22;10873;51.132;16.848;2024-01-15T02:31:18;24.20;41.70
21425;DHT22;10873;51.132;16.848;2024-01-15T02:33:44;24.20;41.70
21425;DHT22;10873;51.132;16.848;2024-01-15T02:36:16;24.20;41.70
21425;DHT22;10873;51.132;16.848;2024-01-15T02:38:42;24.20;41.70
21425;DHT22;10873;51.132;16.848;2024-01-15T02:41:12;24.20;41.70
21425;DHT22;10873;51.132;16.848;2024-01-15T02:43:41;24.20;41.60
21425;DHT22;10873;51.132;16.848;2024-01-15T02:46:12;24.20;41.60
21425;DHT22;10873;51.132;16.848;2024-01-15T02:48:41;24.20;41.60
21425;DHT22;10873;51.132;16.848;2024-01-15T02:51:07;24.20;41.70
21425;DHT22;10873;51.132;16.848;2024-01-15T02:53:33;24.10;41.70
21425;DHT22;10873;51.132;16.848;2024-01-15T02:56:07;24.10;41.70
21425;DHT22;10873;51.132;16.848;2024-01-15T02:58:35;24.10;41.70
21425;DHT22;10873;51.132;16.848;2024-01-15T03:01:01;24.20;41.80
21425;DHT22;10873;51.132;16.848;2024-01-15T03:03:27;24.20;41.70
21425;DHT22;10873;51.132;16.848;2024-01-15T03:05:57;24.20;41.80
21425;DHT22;10873;51.132;16.848;2024-01-15T03:08:27;24.20;41.70
21425;DHT22;10873;51.132;16.848;2024-01-15T03:10:55;24.20;41.70
21425;DHT22;10873;51.132;16.848;2024-01-15T03:13:21;24.20;41.70
21425;DHT22;10873;51.132;16.848;2024-01-15T03:15:57;24.10;41.70
21425;DHT22;10873;51.132;16.848;2024-01-15T03:18:23;24.10;41.70
21425;DHT22;10873;51.132;16.848;2024-01-15T03:20:50;24.10;41.60
21425;DHT22;10873;51.132;16.848;2024-01-15T03:23:23;24.10;41.70
21425;DHT22;10873;51.132;16.848;2024-01-15T03:25:49;24.10;41.70
21425;DHT22;10873;51.132;16.848;2024-01-15T03:28:15;24.10;41.70
21425;DHT22;10873;51.132;16.848;2024-01-15T03:30:41;24.10;41.70
21425;DHT22;10873;51.132;16.848;2024-01-15T03:33:25;24.10;41.70
21425;DHT22;10873;51.132;16.848;2024-01-15T03:35:51;24.10;41.70
21425;DHT22;10873;51.132;16.848;2024-01-15T03:38:27;24.10;41.70
21425;DHT22;10873;51.132;16.848;2024-01-15T03:40:53;24.10;41.70
21425;DHT22;10873;51.132;16.848;2024-01-15T03:43:20;24.10;41.70
21425;DHT22;10873;51.132;16.848;2024-01-15T03:45:45;24.10;41.70
21425;DHT22;10873;51.132;16.848;2024-01-15T03:48:12;24.10;41.70
21425;DHT22;10873;51.132;16.848;2024-01-15T03:50:39;24.10;41.80
21425;DHT22;10873;51.132;16.848;2024-01-15T03:53:05;24.00;41.80
21425;DHT22;10873;51.132;16.848;2024-01-15T03:55:31;24.00;41.80
21425;DHT22;10873;51.132;16.848;2024-01-15T03:57:58;24.00;41.80
21425;DHT22;10873;51.132;16.848;2024-01-15T04:00:24;24.00;41.80
21425;DHT22;10873;51.132;16.848;2024-01-15T04:02:50;24.00;41.80
21425;DHT22;10873;51.132;16.848;2024-01-15T04:05:16;24.00;41.80
21425;DHT22;10873;51.132;16.848;2024-01-15T04:07:44;24.00;41.80
21425;DHT22;10873;51.132;16.848;2024-01-15T04:10:10;24.00;41.80
21425;DHT22;10873;51.132;16.848;2024-01-15T04:12:36;24.00;41.70
21425;DHT22;10873;51.132;16.848;2024-01-15T04:15:02;24.00;41.70
21425;DHT22;10873;51.132;16.848;2024-01-15T04:17:28;24.00;41.70
21425;DHT22;10873;51.132;16.848;2024-01-15T04:19:54;24.00;41.70
21425;DHT22;10873;51.132;16.848;2024-01-15T04:22:20;24.00;41.70
21425;DHT22;10873;51.132;16.848;2024-01-15T04:24:48;24.00;41.70
21425;DHT22;10873;51.132;16.848;2024-01-15T04:27:14;24.00;41.70
21425;DHT22;10873;51.132;16.848;2024-01-15T04:29:40;24.00;41.80
21425;DHT22;10873;51.132;16.848;2024-01-15T04:32:06;24.00;41.70
21425;DHT22;10873;51.132;16.848;2024-01-15T04:34:32;24.00;41.70
21425;DHT22;10873;51.132;16.848;2024-01-15T04:36:58;24.00;41.70
21425;DHT22;10873;51.132;16.848;2024-01-15T04:39:24;24.00;41.70
21425;DHT22;10873;51.132;16.848;2024-01-15T04:41:52;24.00;41.70
21425;DHT22;10873;51.132;16.848;2024-01-15T04:44:18;24.00;41.60
21425;DHT22;10873;51.132;16.848;2024-01-15T04:46:44;24.00;41.60
21425;DHT22;10873;51.132;16.848;2024-01-15T04:49:11;24.00;41.60
21425;DHT22;10873;51.132;16.848;2024-01-15T04:51:37;24.00;41.60
21425;DHT22;10873;51.132;16.848;2024-01-15T04:54:03;24.00;41.50
21425;DHT22;10873;51.132;16.848;2024-01-15T04:56:30;24.00;41.50
21425;DHT22;10873;51.132;16.848;2024-01-15T04:58:57;24.00;41.60
21425;DHT22;10873;51.132;16.848;2024-01-15T05:01:23;24.00;41.60
21425;DHT22;10873;51.132;16.848;2024-01-15T05:03:50;24.00;41.60
21425;DHT22;10873;51.132;16.848;2024-01-15T05:06:18;24.00;41.60
21425;DHT22;10873;51.132;16.848;2024-01-15T05:08:44;24.00;41.60
21425;DHT22;10873;51.132;16.848;2024-01-15T05:11:11;24.00;41.60
21425;DHT22;10873;51.132;16.848;2024-01-15T05:13:37;24.00;41.50
21425;DHT22;10873;51.132;16.848;2024-01-15T05:16:08;24.00;41.50
21425;DHT22;10873;51.132;16.848;2024-01-15T05:18:39;24.00;41.50
21425;DHT22;10873;51.132;16.848;2024-01-15T05:21:13;24.00;41.50
21425;DHT22;10873;51.132;16.848;2024-01-15T05:23:39;24.00;41.50
21425;DHT22;10873;51.132;16.848;2024-01-15T05:26:06;24.00;41.50
21425;DHT22;10873;51.132;16.848;2024-01-15T05:28:34;24.00;41.50
21425;DHT22;10873;51.132;16.848;2024-01-15T05:31:05;23.90;41.50
21425;DHT22;10873;51.132;16.848;2024-01-15T05:33:32;23.90;41.60
21425;DHT22;10873;51.132;16.848;2024-01-15T05:36:02;23.90;41.70
21425;DHT22;10873;51.132;16.848;2024-01-15T05:38:31;23.90;41.70
21425;DHT22;10873;51.132;16.848;2024-01-15T05:41:01;23.90;41.80
21425;DHT22;10873;51.132;16.848;2024-01-15T05:43:28;23.90;41.80
21425;DHT22;10873;51.132;16.848;2024-01-15T05:45:54;24.00;41.90
21425;DHT22;10873;51.132;16.848;2024-01-15T05:48:23;24.00;41.90
21425;DHT22;10873;51.132;16.848;2024-01-15T05:50:53;24.00;42.10
21425;DHT22;10873;51.132;16.848;2024-01-15T05:53:20;24.00;42.10
21425;DHT22;10873;51.132;16.848;2024-01-15T05:55:50;24.00;42.00
21425;DHT22;10873;51.132;16.848;2024-01-15T05:58:18;24.00;42.00
21425;DHT22;10873;51.132;16.848;2024-01-15T06:00:50;23.90;41.90
21425;DHT22;10873;51.132;16.848;2024-01-15T06:03:18;23.90;41.90
21425;DHT22;10873;51.132;16.848;2024-01-15T06:05:46;23.90;41.90
21425;DHT22;10873;51.132;16.848;2024-01-15T06:08:14;23.90;42.00
21425;DHT22;10873;51.132;16.848;2024-01-15T06:10:44;23.90;42.00
21425;DHT22;10873;51.132;16.848;2024-01-15T06:13:10;23.90;42.00
21425;DHT22;10873;51.132;16.848;2024-01-15T06:15:37;23.90;42.00
21425;DHT22;10873;51.132;16.848;2024-01-15T06:18:06;23.90;42.00
21425;DHT22;10873;51.132;16.848;2024-01-15T06:20:35;23.90;41.90
21425;DHT22;10873;51.132;16.848;2024-01-15T06:23:01;23.90;42.00
21425;DHT22;10873;51.132;16.848;2024-01-15T06:25:28;23.90;41.90
21425;DHT22;10873;51.132;16.848;2024-01-15T06:27:54;23.90;41.90
21425;DHT22;10873;51.132;16.848;2024-01-15T06:30:20;23.90;41.90
21425;DHT22;10873;51.132;16.848;2024-01-15T06:32:46;23.90;42.00
21425;DHT22;10873;51.132;16.848;2024-01-15T06:35:12;23.90;42.00
21425;DHT22;10873;51.132;16.848;2024-01-15T06:37:38;23.90;42.00
21425;DHT22;10873;51.132;16.848;2024-01-15T06:40:06;23.90;42.00
21425;DHT22;10873;51.132;16.848;2024-01-15T06:42:33;23.90;42.00
21425;DHT22;10873;51.132;16.848;2024-01-15T06:44:59;23.90;42.00
21425;DHT22;10873;51.132;16.848;2024-01-15T06:47:25;23.90;42.00
21425;DHT22;10873;51.132;16.848;2024-01-15T06:49:51;23.90;41.90
21425;DHT22;10873;51.132;16.848;2024-01-15T06:52:18;23.90;41.90
21425;DHT22;10873;51.132;16.848;2024-01-15T06:54:44;23.90;41.80
21425;DHT22;10873;51.132;16.848;2024-01-15T06:57:10;23.90;41.70
21425;DHT22;10873;51.132;16.848;2024-01-15T06:59:38;23.90;41.70
21425;DHT22;10873;51.132;16.848;2024-01-15T07:02:04;23.90;41.70
21425;DHT22;10873;51.132;16.848;2024-01-15T07:04:31;23.90;41.70
21425;DHT22;10873;51.132;16.848;2024-01-15T07:06:57;23.90;41.60
21425;DHT22;10873;51.132;16.848;2024-01-15T07:09:23;23.90;41.60
21425;DHT22;10873;51.132;16.848;2024-01-15T07:11:49;23.90;41.60
21425;DHT22;10873;51.132;16.848;2024-01-15T07:14:15;23.80;41.50
21425;DHT22;10873;51.132;16.848;2024-01-15T07:16:42;23.90;41.50
21425;DHT22;10873;51.132;16.848;2024-01-15T07:19:08;23.90;42.20
21425;DHT22;10873;51.132;16.848;2024-01-15T07:21:34;23.80;41.40
21425;DHT22;10873;51.132;16.848;2024-01-15T07:24:00;23.80;41.40
21425;DHT22;10873;51.132;16.848;2024-01-15T07:26:26;23.80;41.40
21425;DHT22;10873;51.132;16.848;2024-01-15T07:28:52;23.80;41.20
21425;DHT22;10873;51.132;16.848;2024-01-15T07:31:19;23.80;41.10
21425;DHT22;10873;51.132;16.848;2024-01-15T07:33:46;23.80;40.90
21425;DHT22;10873;51.132;16.848;2024-01-15T07:36:12;23.80;40.70
21425;DHT22;10873;51.132;16.848;2024-01-15T07:38:38;23.70;40.60
21425;DHT22;10873;51.132;16.848;2024-01-15T07:41:04;23.70;40.40
21425;DHT22;10873;51.132;16.848;2024-01-15T07:43:30;23.70;40.30
21425;DHT22;10873;51.132;16.848;2024-01-15T07:45:56;23.70;40.30
21425;DHT22;10873;51.132;16.848;2024-01-15T07:48:23;23.70;40.40
21425;DHT22;10873;51.132;16.848;2024-01-15T07:50:50;23.60;40.30
21425;DHT22;10873;51.132;16.848;2024-01-15T07:53:16;23.60;40.30
21425;DHT22;10873;51.132;16.848;2024-01-15T07:55:42;23.60;40.30
21425;DHT22;10873;51.132;16.848;2024-01-15T07:58:09;23.60;40.30
21425;DHT22;10873;51.132;16.848;2024-01-15T08:00:35;23.60;40.20
21425;DHT22;10873;51.132;16.848;2024-01-15T08:03:01;23.60;40.10
21425;DHT22;10873;51.132;16.848;2024-01-15T08:05:31;23.60;40.10
21425;DHT22;10873;51.132;16.848;2024-01-15T08:08:00;23.60;40.00
21425;DHT22;10873;51.132;16.848;2024-01-15T08:10:30;23.50;39.80
21425;DHT22;10873;51.132;16.848;2024-01-15T08:13:02;23.50;39.50
21425;DHT22;10873;51.132;16.848;2024-01-15T08:15:33;23.50;39.50
21425;DHT22;10873;51.132;16.848;2024-01-15T08:17:59;23.50;39.60
21425;DHT22;10873;51.132;16.848;2024-01-15T08:20:25;23.50;39.60
21425;DHT22;10873;51.132;16.848;2024-01-15T08:22:53;23.50;39.50
21425;DHT22;10873;51.132;16.848;2024-01-15T08:25:23;23.50;39.40
21425;DHT22;10873;51.132;16.848;2024-01-15T08:27:57;23.50;39.40
21425;DHT22;10873;51.132;16.848;2024-01-15T08:30:23;23.40;39.30
21425;DHT22;10873;51.132;16.848;2024-01-15T08:32:56;23.50;39.30
21425;DHT22;10873;51.132;16.848;2024-01-15T08:35:23;23.40;39.20
21425;DHT22;10873;51.132;16.848;2024-01-15T08:37:53;23.40;39.00
21425;DHT22;10873;51.132;16.848;2024-01-15T08:40:21;23.40;38.90
21425;DHT22;10873;51.132;16.848;2024-01-15T08:42:47;23.40;38.80
21425;DHT22;10873;51.132;16.848;2024-01-15T08:45:17;23.40;38.70
21425;DHT22;10873;51.132;16.848;2024-01-15T08:47:45;23.40;38.60
21425;DHT22;10873;51.132;16.848;2024-01-15T08:50:18;23.40;38.70
21425;DHT22;10873;51.132;16.848;2024-01-15T08:52:44;23.40;38.60
21425;DHT22;10873;51.132;16.848;2024-01-15T08:55:15;23.40;38.60
21425;DHT22;10873;51.132;16.848;2024-01-15T08:57:43;23.40;38.60
21425;DHT22;10873;51.132;16.848;2024-01-15T09:00:13;23.40;38.60
21425;DHT22;10873;51.132;16.848;2024-01-15T09:02:43;23.40;38.60
21425;DHT22;10873;51.132;16.848;2024-01-15T09:05:09;23.40;38.60
21425;DHT22;10873;51.132;16.848;2024-01-15T09:07:35;23.40;38.50
21425;DHT22;10873;51.132;16.848;2024-01-15T09:10:02;23.40;38.40
21425;DHT22;10873;51.132;16.848;2024-01-15T09:12:28;23.40;38.40
21425;DHT22;10873;51.132;16.848;2024-01-15T09:14:56;23.40;38.40
21425;DHT22;10873;51.132;16.848;2024-01-15T09:17:22;23.40;38.60
21425;DHT22;10873;51.132;16.848;2024-01-15T09:19:51;23.40;38.70
21425;DHT22;10873;51.132;16.848;2024-01-15T09:22:17;23.40;39.00
21425;DHT22;10873;51.132;16.848;2024-01-15T09:24:46;23.40;39.20
21425;DHT22;10873;51.132;16.848;2024-01-15T09:27:13;23.40;39.50
21425;DHT22;10873;51.132;16.848;2024-01-15T09:29:40;23.40;39.70
21425;DHT22;10873;51.132;16.848;2024-01-15T09:32:09;23.40;40.00
21425;DHT22;10873;51.132;16.848;2024-01-15T09:34:35;23.40;40.10
21425;DHT22;10873;51.132;16.848;2024-01-15T09:37:01;23.30;40.10
21425;DHT22;10873;51.132;16.848;2024-01-15T09:39:27;23.30;40.20
21425;DHT22;10873;51.132;16.848;2024-01-15T09:41:54;23.40;40.30
21425;DHT22;10873;51.132;16.848;2024-01-15T09:44:20;23.40;40.30
21425;DHT22;10873;51.132;16.848;2024-01-15T09:46:47;23.40;40.40
21425;DHT22;10873;51.132;16.848;2024-01-15T09:49:17;23.40;40.50
21425;DHT22;10873;51.132;16.848;2024-01-15T09:51:44;23.40;40.50
21425;DHT22;10873;51.132;16.848;2024-01-15T09:54:11;23.40;40.50
21425;DHT22;10873;51.132;16.848;2024-01-15T09:56:39;23.40;40.40
21425;DHT22;10873;51.132;16.848;2024-01-15T09:59:06;23.40;40.40
21425;DHT22;10873;51.132;16.848;2024-01-15T10:01:36;23.40;40.40
21425;DHT22;10873;51.132;16.848;2024-01-15T10:04:05;23.40;40.40
21425;DHT22;10873;51.132;16.848;2024-01-15T10:06:35;23.40;40.30
21425;DHT22;10873;51.132;16.848;2024-01-15T10:09:18;23.40;40.20
21425;DHT22;10873;51.132;16.848;2024-01-15T10:11:46;23.40;39.90
21425;DHT22;10873;51.132;16.848;2024-01-15T10:14:16;23.30;39.70
21425;DHT22;10873;51.132;16.848;2024-01-15T10:16:47;23.30;39.50
21425;DHT22;10873;51.132;16.848;2024-01-15T10:19:17;23.30;39.30
21425;DHT22;10873;51.132;16.848;2024-01-15T10:21:45;23.30;39.20
21425;DHT22;10873;51.132;16.848;2024-01-15T10:24:17;23.30;39.00
21425;DHT22;10873;51.132;16.848;2024-01-15T10:26:45;23.30;38.90
21425;DHT22;10873;51.132;16.848;2024-01-15T10:29:20;23.30;38.70
21425;DHT22;10873;51.132;16.848;2024-01-15T10:31:56;23.20;38.60
21425;DHT22;10873;51.132;16.848;2024-01-15T10:34:28;23.20;38.50
21425;DHT22;10873;51.132;16.848;2024-01-15T10:36:56;23.20;38.40
21425;DHT22;10873;51.132;16.848;2024-01-15T10:39:26;23.20;38.40
21425;DHT22;10873;51.132;16.848;2024-01-15T10:41:55;23.20;38.40
21425;DHT22;10873;51.132;16.848;2024-01-15T10:44:21;23.10;38.40
21425;DHT22;10873;51.132;16.848;2024-01-15T10:46:55;23.10;38.40
21425;DHT22;10873;51.132;16.848;2024-01-15T10:49:23;23.10;38.40
21425;DHT22;10873;51.132;16.848;2024-01-15T10:52:03;23.10;38.30
21425;DHT22;10873;51.132;16.848;2024-01-15T10:54:29;23.10;38.30
21425;DHT22;10873;51.132;16.848;2024-01-15T10:56:57;23.10;38.30
21425;DHT22;10873;51.132;16.848;2024-01-15T10:59:23;23.20;38.30
21425;DHT22;10873;51.132;16.848;2024-01-15T11:01:50;23.10;38.30
21425;DHT22;10873;51.132;16.848;2024-01-15T11:04:16;23.10;38.20
21425;DHT22;10873;51.132;16.848;2024-01-15T11:06:44;23.10;38.20
21425;DHT22;10873;51.132;16.848;2024-01-15T11:09:13;23.10;38.20
21425;DHT22;10873;51.132;16.848;2024-01-15T11:11:42;23.10;38.20
21425;DHT22;10873;51.132;16.848;2024-01-15T11:14:09;23.10;38.30
21425;DHT22;10873;51.132;16.848;2024-01-15T11:16:54;23.10;38.80
21425;DHT22;10873;51.132;16.848;2024-01-15T11:19:22;23.10;39.50
21425;DHT22;10873;51.132;16.848;2024-01-15T11:21:48;23.10;39.90
21425;DHT22;10873;51.132;16.848;2024-01-15T11:24:34;23.10;41.20
21425;DHT22;10873;51.132;16.848;2024-01-15T11:27:01;23.10;42.10
21425;DHT22;10873;51.132;16.848;2024-01-15T11:29:31;23.20;42.30
21425;DHT22;10873;51.132;16.848;2024-01-15T11:31:59;23.20;42.10
21425;DHT22;10873;51.132;16.848;2024-01-15T11:37:56;23.20;41.20
21425;DHT22;10873;51.132;16.848;2024-01-15T11:40:37;23.20;41.10
21425;DHT22;10873;51.132;16.848;2024-01-15T11:43:04;23.20;41.00
21425;DHT22;10873;51.132;16.848;2024-01-15T11:45:31;23.20;41.00
21425;DHT22;10873;51.132;16.848;2024-01-15T11:48:11;23.20;40.90
21425;DHT22;10873;51.132;16.848;2024-01-15T11:50:40;23.20;41.00
21425;DHT22;10873;51.132;16.848;2024-01-15T11:53:15;23.20;40.90
21425;DHT22;10873;51.132;16.848;2024-01-15T11:55:45;23.20;40.90
21425;DHT22;10873;51.132;16.848;2024-01-15T11:58:12;23.20;40.90
21425;DHT22;10873;51.132;16.848;2024-01-15T12:00:42;23.20;40.90
21425;DHT22;10873;51.132;16.848;2024-01-15T12:03:09;23.20;41.00
21425;DHT22;10873;51.132;16.848;2024-01-15T12:05:37;23.20;41.10
21425;DHT22;10873;51.132;16.848;2024-01-15T12:08:03;23.20;41.10
21425;DHT22;10873;51.132;16.848;2024-01-15T12:10:33;23.20;41.20
21425;DHT22;10873;51.132;16.848;2024-01-15T12:13:05;23.20;41.20
21425;DHT22;10873;51.132;16.848;2024-01-15T12:15:31;23.20;41.30
21425;DHT22;10873;51.132;16.848;2024-01-15T12:17:59;23.20;41.30
21425;DHT22;10873;51.132;16.848;2024-01-15T12:20:26;23.20;41.30
21425;DHT22;10873;51.132;16.848;2024-01-15T12:22:52;23.20;41.30
21425;DHT22;10873;51.132;16.848;2024-01-15T12:25:19;23.20;41.20
21425;DHT22;10873;51.132;16.848;2024-01-15T12:27:45;23.30;41.20
21425;DHT22;10873;51.132;16.848;2024-01-15T12:30:16;23.30;41.20
21425;DHT22;10873;51.132;16.848;2024-01-15T12:32:43;23.30;41.20
21425;DHT22;10873;51.132;16.848;2024-01-15T12:35:17;23.30;41.10
21425;DHT22;10873;51.132;16.848;2024-01-15T12:37:43;23.30;41.00
21425;DHT22;10873;51.132;16.848;2024-01-15T12:40:21;23.20;40.90
21425;DHT22;10873;51.132;16.848;2024-01-15T12:42:49;23.20;40.90
21425;DHT22;10873;51.132;16.848;2024-01-15T12:45:26;23.20;40.90
21425;DHT22;10873;51.132;16.848;2024-01-15T12:47:55;23.20;40.90
21425;DHT22;10873;51.132;16.848;2024-01-15T12:50:24;23.20;41.00
21425;DHT22;10873;51.132;16.848;2024-01-15T12:52:51;23.20;41.00
21425;DHT22;10873;51.132;16.848;2024-01-15T12:55:17;23.20;41.10
21425;DHT22;10873;51.132;16.848;2024-01-15T12:57:49;23.20;41.10
21425;DHT22;10873;51.132;16.848;2024-01-15T13:00:22;23.20;41.20
21425;DHT22;10873;51.132;16.848;2024-01-15T13:02:48;23.20;41.10
21425;DHT22;10873;51.132;16.848;2024-01-15T13:05:17;23.20;41.00
21425;DHT22;10873;51.132;16.848;2024-01-15T13:07:45;23.20;41.10
21425;DHT22;10873;51.132;16.848;2024-01-15T13:10:13;23.20;41.10
21425;DHT22;10873;51.132;16.848;2024-01-15T13:12:40;23.20;41.10
21425;DHT22;10873;51.132;16.848;2024-01-15T13:15:07;23.20;41.00
21425;DHT22;10873;51.132;16.848;2024-01-15T13:17:38;23.20;41.10
21425;DHT22;10873;51.132;16.848;2024-01-15T13:20:08;23.20;41.20
21425;DHT22;10873;51.132;16.848;2024-01-15T13:22:37;23.20;41.30
21425;DHT22;10873;51.132;16.848;2024-01-15T13:25:07;23.20;41.30
21425;DHT22;10873;51.132;16.848;2024-01-15T13:27:33;23.20;41.30
21425;DHT22;10873;51.132;16.848;2024-01-15T13:30:04;23.20;41.40
21425;DHT22;10873;51.132;16.848;2024-01-15T13:32:32;23.20;41.50
21425;DHT22;10873;51.132;16.848;2024-01-15T13:34:59;23.20;41.60
21425;DHT22;10873;51.132;16.848;2024-01-15T13:37:25;23.30;41.70
21425;DHT22;10873;51.132;16.848;2024-01-15T13:39:52;23.30;41.70
21425;DHT22;10873;51.132;16.848;2024-01-15T13:42:18;23.30;41.70
21425;DHT22;10873;51.132;16.848;2024-01-15T13:44:44;23.30;41.70
21425;DHT22;10873;51.132;16.848;2024-01-15T13:47:10;23.30;41.80
21425;DHT22;10873;51.132;16.848;2024-01-15T13:49:36;23.30;41.90
21425;DHT22;10873;51.132;16.848;2024-01-15T13:52:04;23.30;42.00
21425;DHT22;10873;51.132;16.848;2024-01-15T13:54:30;23.30;42.20
21425;DHT22;10873;51.132;16.848;2024-01-15T13:56:56;23.30;42.30
21425;DHT22;10873;51.132;16.848;2024-01-15T13:59:22;23.30;42.40
21425;DHT22;10873;51.132;16.848;2024-01-15T14:01:48;23.30;42.50
21425;DHT22;10873;51.132;16.848;2024-01-15T14:04:14;23.30;42.60
21425;DHT22;10873;51.132;16.848;2024-01-15T14:06:41;23.30;42.60
21425;DHT22;10873;51.132;16.848;2024-01-15T14:09:08;23.30;42.70
21425;DHT22;10873;51.132;16.848;2024-01-15T14:11:36;23.30;42.70
21425;DHT22;10873;51.132;16.848;2024-01-15T14:14:02;23.30;42.60
21425;DHT22;10873;51.132;16.848;2024-01-15T14:16:28;23.30;42.50
21425;DHT22;10873;51.132;16.848;2024-01-15T14:18:54;23.30;42.50
21425;DHT22;10873;51.132;16.848;2024-01-15T14:21:20;23.30;42.30
21425;DHT22;10873;51.132;16.848;2024-01-15T14:23:46;23.40;42.40
21425;DHT22;10873;51.132;16.848;2024-01-15T14:26:14;23.40;42.30
21425;DHT22;10873;51.132;16.848;2024-01-15T14:28:40;23.40;42.30
21425;DHT22;10873;51.132;16.848;2024-01-15T14:31:06;23.40;42.30
21425;DHT22;10873;51.132;16.848;2024-01-15T14:33:33;23.40;42.20
21425;DHT22;10873;51.132;16.848;2024-01-15T14:35:59;23.40;42.20
21425;DHT22;10873;51.132;16.848;2024-01-15T14:38:25;23.40;42.10
21425;DHT22;10873;51.132;16.848;2024-01-15T14:40:52;23.40;42.10
21425;DHT22;10873;51.132;16.848;2024-01-15T14:43:21;23.30;42.10
21425;DHT22;10873;51.132;16.848;2024-01-15T14:45:48;23.30;42.20
21425;DHT22;10873;51.132;16.848;2024-01-15T14:48:29;23.30;42.10
21425;DHT22;10873;51.132;16.848;2024-01-15T14:50:59;23.30;42.10
21425;DHT22;10873;51.132;16.848;2024-01-15T14:53:27;23.30;42.20
21425;DHT22;10873;51.132;16.848;2024-01-15T14:55:58;23.30;42.20
21425;DHT22;10873;51.132;16.848;2024-01-15T14:58:27;23.30;42.20
21425;DHT22;10873;51.132;16.848;2024-01-15T15:00:53;23.30;42.20
21425;DHT22;10873;51.132;16.848;2024-01-15T15:03:23;23.20;42.00
21425;DHT22;10873;51.132;16.848;2024-01-15T15:05:49;23.20;42.10
21425;DHT22;10873;51.132;16.848;2024-01-15T15:08:15;23.20;42.10
21425;DHT22;10873;51.132;16.848;2024-01-15T15:10:45;23.20;42.20
21425;DHT22;10873;51.132;16.848;2024-01-15T15:13:13;23.20;42.30
21425;DHT22;10873;51.132;16.848;2024-01-15T15:15:40;23.20;42.40
21425;DHT22;10873;51.132;16.848;2024-01-15T15:18:12;23.20;42.50
21425;DHT22;10873;51.132;16.848;2024-01-15T15:20:41;23.20;42.50
21425;DHT22;10873;51.132;16.848;2024-01-15T15:23:07;23.20;42.50